DLH2AM LOWW-EDDM
Flight info
| Callsign | DLH2AM |
|---|---|
| Flight time | N/A |
| Altitude | 28000 |
| Route | SOVIL DCT SITNI DCT BAGSI DCT MATIG DCT AMADI Q113 NAPSA NAPSA1B |
| Aircraft | A320/M-SDE3FGHIRWY/LB1 |
Departure
| Time | 2026-05-04 18:50 |
|---|---|
| Airport | Vienna International Airport (LOWW) |
Arrival
| Time | N/A |
|---|---|
| Airport | Munich Airport (EDDM) |
| Time | Latitude | Longitude | Altitude | Speed | Heading |
|---|---|---|---|---|---|
| 2026-05-04 18:02 | 48.11738 | 16.56678 | 603 ft | 0 kts | 27° |
| 2026-05-04 18:40 | 48.11731 | 16.56672 | 604 ft | 3 kts | 26° |
| 2026-05-04 18:40 | 48.11713 | 16.56659 | 619 ft | 3 kts | 26° |
| 2026-05-04 18:40 | 48.11695 | 16.56646 | 622 ft | 3 kts | 26° |
| 2026-05-04 18:40 | 48.11682 | 16.56636 | 615 ft | 1 kts | 39° |
| 2026-05-04 18:41 | 48.11675 | 16.56628 | 611 ft | 1 kts | 94° |
| 2026-05-04 18:41 | 48.11677 | 16.56616 | 619 ft | 1 kts | 116° |
| 2026-05-04 18:41 | 48.11679 | 16.56612 | 617 ft | 0 kts | 111° |
| 2026-05-04 18:45 | 48.11675 | 16.56626 | 610 ft | 6 kts | 111° |
| 2026-05-04 18:45 | 48.11647 | 16.56715 | 622 ft | 11 kts | 116° |
| 2026-05-04 18:46 | 48.11613 | 16.56819 | 615 ft | 11 kts | 116° |
| 2026-05-04 18:46 | 48.11577 | 16.56929 | 614 ft | 12 kts | 116° |
| 2026-05-04 18:46 | 48.11536 | 16.57054 | 619 ft | 14 kts | 116° |
| 2026-05-04 18:46 | 48.11493 | 16.57187 | 616 ft | 14 kts | 116° |
| 2026-05-04 18:47 | 48.11447 | 16.57326 | 615 ft | 16 kts | 116° |
| 2026-05-04 18:47 | 48.11489 | 16.57460 | 612 ft | 14 kts | 26° |
| 2026-05-04 18:47 | 48.11577 | 16.57444 | 617 ft | 12 kts | 343° |
| 2026-05-04 18:47 | 48.11656 | 16.57410 | 614 ft | 11 kts | 344° |
| 2026-05-04 18:48 | 48.11734 | 16.57376 | 609 ft | 12 kts | 343° |
| 2026-05-04 18:48 | 48.11808 | 16.57403 | 602 ft | 11 kts | 62° |
| 2026-05-04 18:48 | 48.11828 | 16.57504 | 602 ft | 10 kts | 72° |
| 2026-05-04 18:48 | 48.11850 | 16.57609 | 603 ft | 10 kts | 75° |
| 2026-05-04 18:49 | 48.11865 | 16.57714 | 603 ft | 11 kts | 84° |
| 2026-05-04 18:49 | 48.11843 | 16.57834 | 602 ft | 13 kts | 115° |
| 2026-05-04 18:49 | 48.11774 | 16.57905 | 603 ft | 14 kts | 166° |
| 2026-05-04 18:49 | 48.11527 | 16.58010 | 604 ft | 73 kts | 163° |
| 2026-05-04 18:50 | 48.10831 | 16.58306 | 614 ft | 132 kts | 164° |
| 2026-05-04 18:50 | 48.09821 | 16.58742 | 892 ft | 156 kts | 163° |
| 2026-05-04 18:50 | 48.08792 | 16.59171 | 1618 ft | 155 kts | 165° |
| 2026-05-04 18:50 | 48.07721 | 16.59611 | 2234 ft | 168 kts | 168° |
| 2026-05-04 18:51 | 48.06516 | 16.60048 | 2590 ft | 188 kts | 176° |
| 2026-05-04 18:51 | 48.05237 | 16.59480 | 2940 ft | 209 kts | 217° |
| 2026-05-04 18:51 | 48.04281 | 16.57716 | 3514 ft | 228 kts | 231° |
| 2026-05-04 18:51 | 48.03323 | 16.55715 | 4179 ft | 243 kts | 232° |
| 2026-05-04 18:52 | 48.02304 | 16.53615 | 5086 ft | 249 kts | 232° |
| 2026-05-04 18:52 | 48.01281 | 16.51524 | 5944 ft | 257 kts | 233° |
| 2026-05-04 18:52 | 48.00209 | 16.49340 | 6771 ft | 264 kts | 233° |
| 2026-05-04 18:52 | 47.99109 | 16.47104 | 7619 ft | 269 kts | 233° |
| 2026-05-04 18:53 | 47.98217 | 16.44635 | 8527 ft | 275 kts | 250° |
| 2026-05-04 18:53 | 47.97912 | 16.41796 | 9403 ft | 282 kts | 268° |
| 2026-05-04 18:53 | 47.98019 | 16.38844 | 10250 ft | 288 kts | 271° |
| 2026-05-04 18:53 | 47.98145 | 16.35738 | 10594 ft | 312 kts | 271° |
| 2026-05-04 18:54 | 47.98278 | 16.32409 | 11060 ft | 328 kts | 271° |
| 2026-05-04 18:54 | 47.98414 | 16.28976 | 11779 ft | 334 kts | 271° |
| 2026-05-04 18:54 | 47.98550 | 16.25488 | 12576 ft | 338 kts | 271° |
| 2026-05-04 18:54 | 47.98686 | 16.21966 | 13378 ft | 342 kts | 271° |
| 2026-05-04 18:55 | 47.98820 | 16.18411 | 14123 ft | 345 kts | 271° |
| 2026-05-04 18:55 | 47.99103 | 16.11199 | 15532 ft | 351 kts | 272° |
| 2026-05-04 18:55 | 47.99339 | 16.07555 | 16235 ft | 355 kts | 274° |
| 2026-05-04 18:56 | 47.99633 | 16.03881 | 16934 ft | 358 kts | 275° |
| 2026-05-04 18:56 | 47.99949 | 16.00174 | 17621 ft | 361 kts | 275° |
| 2026-05-04 18:56 | 48.00269 | 15.96433 | 18290 ft | 365 kts | 275° |
| 2026-05-04 18:56 | 48.00583 | 15.92661 | 18853 ft | 368 kts | 275° |
| 2026-05-04 18:57 | 48.00883 | 15.88857 | 19440 ft | 370 kts | 275° |
| 2026-05-04 18:57 | 48.01174 | 15.85019 | 20011 ft | 373 kts | 275° |
| 2026-05-04 18:57 | 48.01463 | 15.81142 | 20568 ft | 377 kts | 275° |
| 2026-05-04 18:57 | 48.01751 | 15.77244 | 21134 ft | 380 kts | 275° |
| 2026-05-04 18:58 | 48.02039 | 15.73305 | 21664 ft | 383 kts | 275° |
| 2026-05-04 18:58 | 48.02328 | 15.69335 | 22249 ft | 385 kts | 276° |
| 2026-05-04 18:58 | 48.02617 | 15.65394 | 22781 ft | 388 kts | 276° |
| 2026-05-04 18:58 | 48.02913 | 15.61376 | 23302 ft | 390 kts | 276° |
| 2026-05-04 18:59 | 48.03210 | 15.57328 | 23756 ft | 394 kts | 276° |
| 2026-05-04 18:59 | 48.03513 | 15.53219 | 24191 ft | 397 kts | 276° |
| 2026-05-04 18:59 | 48.03813 | 15.49136 | 24592 ft | 400 kts | 276° |
| 2026-05-04 18:59 | 48.04113 | 15.44992 | 25041 ft | 402 kts | 276° |
| 2026-05-04 19:00 | 48.04410 | 15.40829 | 25463 ft | 404 kts | 276° |
| 2026-05-04 19:00 | 48.04690 | 15.36635 | 25896 ft | 406 kts | 274° |
| 2026-05-04 19:00 | 48.04862 | 15.32410 | 26354 ft | 407 kts | 272° |
| 2026-05-04 19:00 | 48.04940 | 15.28175 | 26773 ft | 409 kts | 270° |
| 2026-05-04 19:01 | 48.04967 | 15.23919 | 27192 ft | 410 kts | 270° |
| 2026-05-04 19:01 | 48.04981 | 15.19647 | 27615 ft | 412 kts | 270° |
| 2026-05-04 19:01 | 48.05004 | 15.15361 | 27885 ft | 411 kts | 270° |
| 2026-05-04 19:01 | 48.05044 | 15.11131 | 27921 ft | 399 kts | 270° |
| 2026-05-04 19:02 | 48.05098 | 15.07020 | 27923 ft | 395 kts | 271° |
| 2026-05-04 19:02 | 48.05161 | 15.02931 | 27927 ft | 393 kts | 271° |
| 2026-05-04 19:02 | 48.05223 | 14.98843 | 27921 ft | 394 kts | 271° |
| 2026-05-04 19:02 | 48.05279 | 14.94748 | 27914 ft | 394 kts | 270° |
| 2026-05-04 19:03 | 48.05329 | 14.90651 | 27915 ft | 394 kts | 270° |
| 2026-05-04 19:03 | 48.05381 | 14.86555 | 27915 ft | 394 kts | 270° |
| 2026-05-04 19:03 | 48.05433 | 14.82459 | 27915 ft | 394 kts | 270° |